createdAt,value
2019-01-03T00:02:29.637Z,-3.00
2019-01-03T00:05:17.111Z,-3.10
2019-01-03T00:07:48.513Z,-3.10
2019-01-03T00:10:22.731Z,-3.10
2019-01-03T00:13:12.205Z,-3.10
2019-01-03T00:15:43.660Z,-3.00
2019-01-03T00:18:15.938Z,-3.00
2019-01-03T00:20:47.361Z,-3.10
2019-01-03T00:23:21.879Z,-3.10
2019-01-03T00:26:08.637Z,-3.10
2019-01-03T00:28:43.127Z,-3.10
2019-01-03T00:31:29.898Z,-3.10
2019-01-03T00:34:10.369Z,-3.20
2019-01-03T00:36:47.563Z,-3.20
2019-01-03T00:39:19.091Z,-3.30
2019-01-03T00:41:54.639Z,-3.30
2019-01-03T00:44:26.061Z,-3.30
2019-01-03T00:47:10.368Z,-3.40
2019-01-03T00:49:44.540Z,-3.50
2019-01-03T00:52:19.100Z,-3.50
2019-01-03T00:54:53.342Z,-3.50
2019-01-03T00:57:30.820Z,-3.50
2019-01-03T01:00:05.360Z,-3.60
2019-01-03T01:02:43.022Z,-3.60
2019-01-03T01:05:14.470Z,-3.50
2019-01-03T01:07:45.972Z,-3.50
2019-01-03T01:10:33.780Z,-3.50
2019-01-03T01:13:14.033Z,-3.60
2019-01-03T01:16:01.862Z,-3.60
2019-01-03T01:18:33.301Z,-3.70
2019-01-03T01:21:10.900Z,-3.70
2019-01-03T01:23:58.687Z,-3.60
2019-01-03T01:26:30.081Z,-3.70
2019-01-03T01:29:13.906Z,-3.70
2019-01-03T01:31:55.562Z,-3.60
2019-01-03T01:34:42.069Z,-3.70
2019-01-03T01:37:30.170Z,-3.70
2019-01-03T01:40:04.841Z,-3.60
2019-01-03T01:42:52.592Z,-3.70
2019-01-03T01:45:24.274Z,-3.70
2019-01-03T01:48:04.922Z,-3.60
2019-01-03T01:50:36.357Z,-3.70
2019-01-03T01:53:14.115Z,-3.60
2019-01-03T01:55:45.730Z,-3.60
2019-01-03T01:58:15.360Z,-3.50
2019-01-03T02:00:49.809Z,-3.40
2019-01-03T02:03:37.891Z,-3.30
2019-01-03T02:06:22.721Z,-3.20
2019-01-03T02:09:03.056Z,-3.10
2019-01-03T02:11:40.908Z,-3.10
2019-01-03T02:14:12.347Z,-3.10
2019-01-03T02:16:46.772Z,-3.20
2019-01-03T02:19:34.456Z,-3.30
2019-01-03T02:22:04.008Z,-3.30
2019-01-03T02:24:36.536Z,-3.40
2019-01-03T02:27:20.301Z,-3.40
2019-01-03T02:30:07.919Z,-3.40
2019-01-03T02:32:40.335Z,-3.40
2019-01-03T02:35:28.103Z,-3.50
2019-01-03T02:37:59.540Z,-3.40
2019-01-03T02:40:35.372Z,-3.40
2019-01-03T02:43:09.901Z,-3.30
2019-01-03T02:45:47.327Z,-3.30
2019-01-03T02:48:20.140Z,-3.30
2019-01-03T02:51:00.814Z,-3.30
2019-01-03T02:53:32.274Z,-3.30
2019-01-03T02:56:03.759Z,-3.30
2019-01-03T02:58:40.889Z,-3.20
2019-01-03T03:01:18.313Z,-3.20
2019-01-03T03:03:55.567Z,-3.20
2019-01-03T03:06:42.059Z,-3.10
2019-01-03T03:09:13.494Z,-3.00
2019-01-03T03:11:53.934Z,-3.00
2019-01-03T03:14:34.383Z,-2.90
2019-01-03T03:17:08.275Z,-2.90
2019-01-03T03:19:56.053Z,-2.80
2019-01-03T03:22:30.040Z,-2.80
2019-01-03T03:25:04.327Z,-2.80
2019-01-03T03:27:41.707Z,-2.90
2019-01-03T03:30:29.651Z,-2.80
2019-01-03T03:33:17.374Z,-2.80
2019-01-03T03:35:47.010Z,-2.80
2019-01-03T03:38:21.527Z,-2.80
2019-01-03T03:40:58.946Z,-2.80
2019-01-03T03:43:48.533Z,-2.80
2019-01-03T03:46:22.659Z,-2.80
2019-01-03T03:48:54.955Z,-2.90
2019-01-03T03:51:44.503Z,-2.90
2019-01-03T03:54:22.848Z,-2.90
2019-01-03T03:56:54.292Z,-2.90
2019-01-03T03:59:24.134Z,-3.00
2019-01-03T04:02:04.696Z,-3.00
2019-01-03T04:04:42.285Z,-2.80
2019-01-03T04:07:26.022Z,-2.80
2019-01-03T04:10:13.452Z,-2.90
2019-01-03T04:12:47.975Z,-3.00
2019-01-03T04:15:22.706Z,-3.00
2019-01-03T04:17:57.628Z,-3.10
2019-01-03T04:20:32.367Z,-3.10
2019-01-03T04:23:03.835Z,-3.20
2019-01-03T04:25:51.663Z,-3.30
2019-01-03T04:28:21.233Z,-3.40
2019-01-03T04:30:53.754Z,-3.50
2019-01-03T04:33:34.344Z,-3.70
2019-01-03T04:36:08.740Z,-3.70
2019-01-03T04:38:46.210Z,-3.90
2019-01-03T04:41:23.835Z,-4.00
2019-01-03T04:43:53.386Z,-4.10
2019-01-03T04:46:24.889Z,-4.20
2019-01-03T04:48:56.324Z,-4.20
2019-01-03T04:51:27.837Z,-4.30
2019-01-03T04:53:59.232Z,-4.30
2019-01-03T04:56:42.474Z,-4.30
2019-01-03T04:59:16.899Z,-4.40
2019-01-03T05:02:07.706Z,-4.40
2019-01-03T05:04:52.298Z,-4.40
2019-01-03T05:07:32.938Z,-4.40
2019-01-03T05:10:19.475Z,-4.20
2019-01-03T05:12:50.901Z,-4.10
2019-01-03T05:15:31.463Z,-4.20
2019-01-03T05:18:02.907Z,-4.20
2019-01-03T05:20:35.192Z,-4.10
2019-01-03T05:23:10.784Z,-4.00
2019-01-03T05:25:53.950Z,-4.00
2019-01-03T05:28:25.430Z,-3.90
2019-01-03T05:31:12.692Z,-3.90
2019-01-03T05:34:02.306Z,-4.00
2019-01-03T05:36:36.888Z,-4.00
2019-01-03T05:39:08.950Z,-3.90
2019-01-03T05:41:40.381Z,-3.90
2019-01-03T05:44:14.539Z,-3.90
2019-01-03T05:47:02.622Z,-3.80
2019-01-03T05:49:43.280Z,-3.90
2019-01-03T05:52:31.051Z,-3.80
2019-01-03T05:55:08.213Z,-3.70
2019-01-03T05:57:55.829Z,-3.60
2019-01-03T06:00:27.250Z,-3.60
2019-01-03T06:03:11.897Z,-3.60
2019-01-03T06:06:00.031Z,-3.60
2019-01-03T06:08:47.524Z,-3.60
2019-01-03T06:11:18.948Z,-3.60
2019-01-03T06:13:56.436Z,-3.60
2019-01-03T06:16:30.571Z,-3.50
2019-01-03T06:19:06.245Z,-3.50
2019-01-03T06:21:53.843Z,-3.50
2019-01-03T06:24:41.641Z,-3.50
2019-01-03T06:27:17.193Z,-3.50
2019-01-03T06:30:04.697Z,-3.60
2019-01-03T06:32:38.878Z,-3.70
2019-01-03T06:35:26.408Z,-3.60
2019-01-03T06:38:09.836Z,-3.70
2019-01-03T06:40:57.319Z,-3.70
2019-01-03T06:43:31.661Z,-3.70
2019-01-03T06:46:03.074Z,-3.70
2019-01-03T06:48:34.505Z,-3.80
2019-01-03T06:51:22.070Z,-3.90
2019-01-03T06:54:05.876Z,-4.00
2019-01-03T06:56:46.118Z,-4.00
2019-01-03T06:59:26.558Z,-4.00
2019-01-03T07:02:01.182Z,-4.00
2019-01-03T07:04:35.501Z,-3.90
2019-01-03T07:07:19.012Z,-3.90
2019-01-03T07:10:06.678Z,-3.80
2019-01-03T07:12:50.496Z,-3.70
2019-01-03T07:15:32.464Z,-3.40
2019-01-03T07:18:05.031Z,-3.40
2019-01-03T07:20:51.293Z,-3.30
2019-01-03T07:23:22.840Z,-3.30
2019-01-03T07:26:06.414Z,-3.40
2019-01-03T07:28:48.197Z,-3.30
2019-01-03T07:31:35.711Z,-3.30
2019-01-03T07:34:05.258Z,-3.30
2019-01-03T07:36:49.759Z,-3.20
2019-01-03T07:39:36.655Z,-3.30
2019-01-03T07:42:06.220Z,-3.20
2019-01-03T07:44:37.644Z,-3.10
2019-01-03T07:47:09.045Z,-3.00
2019-01-03T07:49:56.543Z,-2.90
2019-01-03T07:52:40.258Z,-2.80
2019-01-03T07:55:09.813Z,-2.80
2019-01-03T07:57:57.802Z,-2.80
2019-01-03T08:00:45.729Z,-2.80
2019-01-03T08:03:26.024Z,-2.70
2019-01-03T08:06:00.441Z,-2.80
2019-01-03T08:08:47.869Z,-2.80
2019-01-03T08:11:21.744Z,-2.70
2019-01-03T08:13:53.176Z,-2.60
2019-01-03T08:16:41.034Z,-2.60
2019-01-03T08:19:15.144Z,-2.50
2019-01-03T08:22:00.048Z,-2.50
2019-01-03T08:24:31.458Z,-2.50
2019-01-03T08:27:02.890Z,-2.50
2019-01-03T08:29:40.255Z,-2.50
2019-01-03T08:32:14.427Z,-2.50
2019-01-03T08:35:02.189Z,-2.40
2019-01-03T08:37:49.986Z,-2.40
2019-01-03T08:40:30.369Z,-2.30
2019-01-03T08:43:07.632Z,-2.20
2019-01-03T08:45:44.851Z,-2.20
2019-01-03T08:48:32.458Z,-2.10
2019-01-03T08:51:20.223Z,-2.20
2019-01-03T08:53:52.607Z,-2.10
2019-01-03T08:56:31.205Z,-2.10
2019-01-03T08:59:00.756Z,-2.10
2019-01-03T09:01:48.617Z,-2.00
2019-01-03T09:04:36.333Z,-2.00
2019-01-03T09:07:07.761Z,-1.90
2019-01-03T09:09:39.250Z,-1.80
2019-01-03T09:12:26.981Z,-1.80
2019-01-03T09:15:14.661Z,-1.80
2019-01-03T09:17:53.377Z,-1.80
2019-01-03T09:20:22.934Z,-1.70
2019-01-03T09:23:10.771Z,-1.50
2019-01-03T09:25:51.281Z,-1.40
2019-01-03T09:28:38.846Z,-1.40
2019-01-03T09:31:14.478Z,-1.60
2019-01-03T09:33:46.083Z,-1.60
2019-01-03T09:36:29.544Z,-1.60
2019-01-03T09:39:17.290Z,-1.40
2019-01-03T09:41:55.991Z,-1.30
2019-01-03T09:44:27.566Z,-1.20
2019-01-03T09:46:57.483Z,-1.20
2019-01-03T09:49:27.365Z,-1.30
2019-01-03T09:51:57.357Z,-1.30
2019-01-03T09:54:27.166Z,-1.30
2019-01-03T09:56:56.965Z,-1.30
2019-01-03T09:59:26.821Z,-1.20
2019-01-03T10:01:56.667Z,-1.20
2019-01-03T10:04:26.449Z,-0.90
2019-01-03T10:06:56.311Z,-0.70
2019-01-03T10:09:26.101Z,-0.70
2019-01-03T10:11:55.969Z,-0.70
2019-01-03T10:14:25.749Z,-0.80
2019-01-03T10:16:55.586Z,-0.70
2019-01-03T10:19:25.454Z,-0.40
2019-01-03T10:21:55.225Z,-0.20
2019-01-03T10:24:25.053Z,-0.10
2019-01-03T10:26:54.827Z,0.00
2019-01-03T10:29:24.678Z,0.00
2019-01-03T10:31:54.493Z,0.30
2019-01-03T10:34:24.355Z,0.30
2019-01-03T10:36:54.235Z,0.60
2019-01-03T10:39:24.034Z,1.60
2019-01-03T10:41:53.883Z,3.30
2019-01-03T10:44:23.696Z,4.10
2019-01-03T10:46:53.519Z,4.70
2019-01-03T10:49:23.308Z,4.60
2019-01-03T10:51:53.123Z,4.30
2019-01-03T10:54:22.945Z,4.10
2019-01-03T10:56:52.727Z,3.80
2019-01-03T10:59:22.579Z,4.00
2019-01-03T11:01:52.329Z,5.00
2019-01-03T11:04:22.188Z,4.90
2019-01-03T11:06:52.039Z,5.60
2019-01-03T11:09:21.861Z,6.10
2019-01-03T11:11:51.715Z,7.90
2019-01-03T11:14:21.499Z,10.10
2019-01-03T11:16:51.528Z,11.80
2019-01-03T11:19:21.394Z,11.40
2019-01-03T11:21:51.250Z,9.00
2019-01-03T11:24:21.174Z,7.10
2019-01-03T11:26:51.017Z,6.50
2019-01-03T11:29:20.795Z,6.00
2019-01-03T11:31:50.616Z,5.70
2019-01-03T11:34:20.476Z,5.70
2019-01-03T11:36:50.422Z,4.50
2019-01-03T11:39:20.343Z,3.50
2019-01-03T11:41:50.271Z,2.80
2019-01-03T11:44:20.306Z,2.40
2019-01-03T11:46:50.126Z,2.50
2019-01-03T11:49:20.004Z,2.10
2019-01-03T11:51:49.836Z,2.20
2019-01-03T11:54:19.596Z,2.20
2019-01-03T11:56:49.410Z,2.40
2019-01-03T11:59:19.187Z,2.40
2019-01-03T12:01:48.998Z,2.70
2019-01-03T12:04:18.791Z,3.10
2019-01-03T12:06:48.639Z,3.10
2019-01-03T12:09:18.392Z,3.00
2019-01-03T12:11:48.167Z,3.00
2019-01-03T12:14:18.023Z,3.00
2019-01-03T12:16:47.851Z,2.80
2019-01-03T12:19:17.645Z,3.00
2019-01-03T12:21:47.521Z,2.60
2019-01-03T12:24:17.266Z,3.20
2019-01-03T12:26:47.120Z,4.50
2019-01-03T12:29:16.973Z,4.80
2019-01-03T12:31:46.874Z,5.30
2019-01-03T12:34:16.681Z,5.80
2019-01-03T12:36:46.527Z,6.30
2019-01-03T12:39:16.363Z,6.90
2019-01-03T12:41:46.203Z,7.20
2019-01-03T12:44:15.970Z,7.40
2019-01-03T12:46:45.775Z,7.50
2019-01-03T12:49:15.661Z,7.70
2019-01-03T12:51:46.728Z,8.00
2019-01-03T12:54:16.504Z,9.10
2019-01-03T12:56:46.341Z,9.50
2019-01-03T12:59:16.205Z,9.80
2019-01-03T13:01:45.956Z,9.70
2019-01-03T13:04:15.747Z,9.70
2019-01-03T13:06:45.696Z,9.50
2019-01-03T13:09:17.081Z,8.90
2019-01-03T13:11:47.571Z,9.00
2019-01-03T13:14:17.382Z,9.90
2019-01-03T13:16:47.405Z,12.00
2019-01-03T13:19:19.031Z,12.60
2019-01-03T13:21:48.815Z,11.80
2019-01-03T13:24:18.680Z,10.70
2019-01-03T13:26:48.459Z,9.40
2019-01-03T13:29:19.143Z,6.10
2019-01-03T13:31:49.133Z,5.50
2019-01-03T13:34:18.881Z,5.60
2019-01-03T13:36:48.755Z,5.20
2019-01-03T13:39:18.669Z,4.40
2019-01-03T13:41:48.482Z,4.40
2019-01-03T13:44:18.255Z,5.30
2019-01-03T13:46:48.085Z,5.60
2019-01-03T13:49:17.975Z,6.40
2019-01-03T13:51:48.018Z,6.70
2019-01-03T13:54:18.075Z,5.30
2019-01-03T13:56:48.103Z,4.40
2019-01-03T13:59:17.945Z,2.80
2019-01-03T14:01:48.016Z,2.10
2019-01-03T14:04:17.989Z,2.30
2019-01-03T14:06:47.914Z,3.10
2019-01-03T14:09:17.829Z,3.80
2019-01-03T14:11:47.679Z,4.30
2019-01-03T14:14:17.458Z,4.00
2019-01-03T14:16:47.270Z,3.50
2019-01-03T14:19:17.089Z,2.10
2019-01-03T14:21:46.929Z,1.30
2019-01-03T14:24:17.379Z,0.80
2019-01-03T14:26:47.131Z,0.70
2019-01-03T14:29:17.004Z,0.60
2019-01-03T14:31:46.802Z,0.50
2019-01-03T14:34:16.623Z,0.30
2019-01-03T14:36:46.418Z,0.10
2019-01-03T14:39:16.239Z,0.10
2019-01-03T14:41:46.213Z,0.10
2019-01-03T14:44:15.970Z,0.10
2019-01-03T14:46:45.943Z,0.00
2019-01-03T14:49:15.728Z,-0.20
2019-01-03T14:51:45.567Z,-0.30
2019-01-03T14:54:15.409Z,-0.40
2019-01-03T14:56:45.162Z,-0.40
2019-01-03T14:59:15.111Z,-0.60
2019-01-03T15:01:45.006Z,-0.70
2019-01-03T15:04:14.870Z,-0.80
2019-01-03T15:06:44.705Z,-1.00
2019-01-03T15:09:14.531Z,-1.20
2019-01-03T15:11:44.472Z,-1.30
2019-01-03T15:14:14.336Z,-1.50
2019-01-03T15:16:44.171Z,-1.70
2019-01-03T15:19:14.050Z,-1.90
2019-01-03T15:21:43.999Z,-2.00
2019-01-03T15:24:13.962Z,-2.10
2019-01-03T15:26:43.943Z,-2.20
2019-01-03T15:29:13.847Z,-2.20
2019-01-03T15:31:43.775Z,-2.30
2019-01-03T15:34:13.674Z,-2.30
2019-01-03T15:36:43.560Z,-2.30
2019-01-03T15:39:13.312Z,-2.40
2019-01-03T15:41:43.328Z,-2.50
2019-01-03T15:44:13.078Z,-2.50
2019-01-03T15:46:42.938Z,-2.50
2019-01-03T15:49:12.883Z,-2.50
2019-01-03T15:51:42.859Z,-2.50
2019-01-03T15:54:12.764Z,-2.50
2019-01-03T15:56:42.629Z,-2.50
2019-01-03T15:59:12.471Z,-2.50
2019-01-03T16:01:42.338Z,-2.50
2019-01-03T16:04:12.124Z,-2.60
2019-01-03T16:06:43.435Z,-2.50
2019-01-03T16:09:13.183Z,-2.50
2019-01-03T16:11:43.134Z,-2.40
2019-01-03T16:14:12.973Z,-2.40
2019-01-03T16:16:42.814Z,-2.40
2019-01-03T16:19:14.276Z,-2.30
2019-01-03T16:21:44.177Z,-2.30
2019-01-03T16:24:14.000Z,-2.30
2019-01-03T16:26:44.232Z,-2.30
2019-01-03T16:29:14.060Z,-2.30
2019-01-03T16:31:43.963Z,-2.20
2019-01-03T16:34:13.770Z,-2.30
2019-01-03T16:36:43.569Z,-2.20
2019-01-03T16:39:13.388Z,-2.20
2019-01-03T16:41:43.378Z,-2.30
2019-01-03T16:44:13.199Z,-2.30
2019-01-03T16:46:43.053Z,-2.30
2019-01-03T16:49:12.884Z,-2.30
2019-01-03T16:51:42.736Z,-2.30
2019-01-03T16:54:12.511Z,-2.30
2019-01-03T16:56:42.474Z,-2.30
2019-01-03T16:59:12.302Z,-2.30
2019-01-03T17:01:42.199Z,-2.30
2019-01-03T17:04:12.065Z,-2.20
2019-01-03T17:06:41.921Z,-2.20
2019-01-03T17:09:11.757Z,-2.20
2019-01-03T17:11:41.534Z,-2.20
2019-01-03T17:14:11.497Z,-2.30
2019-01-03T17:16:41.254Z,-2.30
2019-01-03T17:19:11.057Z,-2.30
2019-01-03T17:21:40.895Z,-2.30
2019-01-03T17:24:10.752Z,-2.30
2019-01-03T17:26:40.575Z,-2.30
2019-01-03T17:29:10.431Z,-2.40
2019-01-03T17:31:40.257Z,-2.40
2019-01-03T17:34:10.138Z,-2.40
2019-01-03T17:36:39.912Z,-2.30
2019-01-03T17:39:09.782Z,-2.30
2019-01-03T17:41:39.641Z,-2.30
2019-01-03T17:44:09.501Z,-2.30
2019-01-03T17:46:39.249Z,-2.40
2019-01-03T17:49:09.076Z,-2.30
2019-01-03T17:51:38.886Z,-2.30
2019-01-03T17:54:08.671Z,-2.30
2019-01-03T17:56:38.563Z,-2.40
2019-01-03T17:59:08.445Z,-2.40
2019-01-03T18:01:38.366Z,-2.30
2019-01-03T18:04:08.245Z,-2.30
2019-01-03T18:06:38.127Z,-2.30
2019-01-03T18:09:07.989Z,-2.30
2019-01-03T18:11:37.818Z,-2.40
2019-01-03T18:14:07.596Z,-2.40
2019-01-03T18:16:37.357Z,-2.40
2019-01-03T18:19:07.250Z,-2.40
2019-01-03T18:21:37.001Z,-2.30
2019-01-03T18:24:06.847Z,-2.40
2019-01-03T18:26:36.604Z,-2.40
2019-01-03T18:29:06.461Z,-2.40
2019-01-03T18:31:36.326Z,-2.40
2019-01-03T18:34:06.153Z,-2.30
2019-01-03T18:36:36.043Z,-2.30
2019-01-03T18:39:07.062Z,-2.30
2019-01-03T18:41:36.929Z,-2.30
2019-01-03T18:44:07.279Z,-2.30
2019-01-03T18:46:37.395Z,-2.30
2019-01-03T18:49:07.222Z,-2.30
2019-01-03T18:51:37.203Z,-2.30
2019-01-03T18:54:07.030Z,-2.20
2019-01-03T18:56:36.888Z,-2.20
2019-01-03T18:59:06.811Z,-2.20
2019-01-03T19:01:36.990Z,-2.20
2019-01-03T19:04:06.895Z,-2.20
2019-01-03T19:06:37.034Z,-2.20
2019-01-03T19:09:07.769Z,-2.20
2019-01-03T19:11:37.620Z,-2.20
2019-01-03T19:14:07.752Z,-2.30
2019-01-03T19:16:37.609Z,-2.30
2019-01-03T19:19:07.718Z,-2.30
2019-01-03T19:21:37.660Z,-2.30
2019-01-03T19:24:10.704Z,-2.20
2019-01-03T19:26:40.564Z,-2.10
2019-01-03T19:29:10.461Z,-2.10
2019-01-03T19:31:40.492Z,-2.10
2019-01-03T19:34:10.398Z,-2.10
2019-01-03T19:36:40.293Z,-2.10
2019-01-03T19:39:10.114Z,-2.10
2019-01-03T19:41:39.914Z,-2.00
2019-01-03T19:44:09.741Z,-2.10
2019-01-03T19:46:39.800Z,-2.10
2019-01-03T19:49:09.623Z,-2.10
2019-01-03T19:51:39.655Z,-2.10
2019-01-03T19:54:09.558Z,-2.00
2019-01-03T19:56:39.345Z,-2.00
2019-01-03T19:59:09.099Z,-2.00
2019-01-03T20:01:38.983Z,-2.00
2019-01-03T20:04:08.943Z,-2.00
2019-01-03T20:06:38.962Z,-2.00
2019-01-03T20:09:10.592Z,-1.90
2019-01-03T20:11:40.706Z,-2.00
2019-01-03T20:14:10.983Z,-2.00
2019-01-03T20:16:41.479Z,-2.00
2019-01-03T20:19:11.592Z,-2.00
2019-01-03T20:21:41.712Z,-1.90
2019-01-03T20:24:11.899Z,-2.00
2019-01-03T20:26:41.962Z,-2.00
2019-01-03T20:29:11.800Z,-2.00
2019-01-03T20:31:41.806Z,-2.00
2019-01-03T20:34:11.669Z,-2.00
2019-01-03T20:36:41.594Z,-2.10
2019-01-03T20:39:11.470Z,-2.00
2019-01-03T20:41:41.529Z,-2.00
2019-01-03T20:44:11.532Z,-2.10
2019-01-03T20:46:41.443Z,-2.00
2019-01-03T20:49:11.279Z,-2.00
2019-01-03T20:51:41.125Z,-2.00
2019-01-03T20:54:10.907Z,-2.00
2019-01-03T20:56:41.188Z,-2.00
2019-01-03T20:59:11.052Z,-2.00
2019-01-03T21:01:40.879Z,-2.00
2019-01-03T21:04:11.056Z,-2.00
2019-01-03T21:06:41.034Z,-2.00
2019-01-03T21:09:10.895Z,-2.00
2019-01-03T21:11:40.660Z,-1.90
2019-01-03T21:14:10.525Z,-1.90
2019-01-03T21:16:40.284Z,-1.90
2019-01-03T21:19:10.142Z,-1.90
2019-01-03T21:21:41.446Z,-1.90
2019-01-03T21:24:11.304Z,-1.90
2019-01-03T21:26:41.172Z,-1.90
2019-01-03T21:29:11.057Z,-1.90
2019-01-03T21:31:40.961Z,-1.90
2019-01-03T21:34:10.822Z,-1.90
2019-01-03T21:36:40.613Z,-1.90
2019-01-03T21:39:10.713Z,-1.90
2019-01-03T21:41:40.644Z,-1.90
2019-01-03T21:44:10.605Z,-1.90
2019-01-03T21:46:40.641Z,-1.90
2019-01-03T21:49:10.546Z,-1.90
2019-01-03T21:51:40.415Z,-1.90
2019-01-03T21:54:10.308Z,-1.90
2019-01-03T21:56:40.279Z,-1.80
2019-01-03T21:59:10.156Z,-1.90
2019-01-03T22:01:40.114Z,-1.80
2019-01-03T22:04:10.080Z,-1.80
2019-01-03T22:06:40.106Z,-1.90
2019-01-03T22:09:09.993Z,-1.90
2019-01-03T22:11:40.063Z,-1.90
2019-01-03T22:14:09.988Z,-1.90
2019-01-03T22:16:40.019Z,-1.90
2019-01-03T22:19:10.926Z,-1.90
2019-01-03T22:21:40.679Z,-1.90
2019-01-03T22:24:10.577Z,-1.90
2019-01-03T22:26:40.489Z,-2.00
2019-01-03T22:29:10.440Z,-2.00
2019-01-03T22:31:40.380Z,-2.10
2019-01-03T22:34:10.292Z,-2.10
2019-01-03T22:36:40.080Z,-2.10
2019-01-03T22:39:09.941Z,-2.10
2019-01-03T22:41:39.803Z,-2.10
2019-01-03T22:44:11.100Z,-2.10
2019-01-03T22:46:40.983Z,-2.10
2019-01-03T22:49:10.846Z,-2.10
2019-01-03T22:51:45.199Z,-2.10
2019-01-03T22:54:15.056Z,-2.10
2019-01-03T22:56:45.025Z,-2.10
2019-01-03T22:59:14.931Z,-2.10
2019-01-03T23:01:44.875Z,-2.10
2019-01-03T23:04:14.712Z,-2.10
2019-01-03T23:06:44.567Z,-2.10
2019-01-03T23:09:14.351Z,-2.00
2019-01-03T23:11:44.191Z,-2.10
2019-01-03T23:14:14.047Z,-2.10
2019-01-03T23:16:43.900Z,-2.00
2019-01-03T23:19:13.683Z,-2.00
2019-01-03T23:21:43.483Z,-2.00
2019-01-03T23:24:13.311Z,-2.00
2019-01-03T23:26:43.151Z,-2.00
2019-01-03T23:29:13.023Z,-2.00
2019-01-03T23:31:42.896Z,-2.00
2019-01-03T23:34:12.835Z,-2.00
2019-01-03T23:36:42.706Z,-1.90
2019-01-03T23:39:12.572Z,-1.90
2019-01-03T23:41:42.393Z,-1.90
2019-01-03T23:44:12.419Z,-1.90
2019-01-03T23:46:42.238Z,-1.90
2019-01-03T23:49:12.068Z,-1.90
2019-01-03T23:51:42.426Z,-1.90
2019-01-03T23:54:12.278Z,-2.00
2019-01-03T23:56:42.109Z,-2.00
2019-01-03T23:59:11.911Z,-2.00
